Time;durP1;ratioP1;P1;durP2;ratioP2;P2;SDS_P1;SDS_P2;PMS_P1;PMS_P2;Temp;Humidity;BMP_temperature;BMP_pressure;BME280_temperature;BME280_humidity;BME280_pressure;Samples;Min_cycle;Max_cycle;Signal;HPM_P1;HPM_P2
2023/03/02 00:01:49;;;;;;;0.00;0.00;;;4.90;99.90;;;;;;5009578;28;20046;-82
2023/03/02 00:04:32;;;;;;;0.00;0.00;;;4.90;99.90;;;;;;5023617;28;20025;-82
2023/03/02 00:07:04;;;;;;;0.00;0.00;;;5.00;99.90;;;;;;5021317;28;20022;-82
2023/03/02 00:09:37;;;;;;;0.00;0.00;;;4.90;99.90;;;;;;5022942;28;20123;-82
2023/03/02 00:12:05;;;;;;;0.00;0.00;;;4.90;99.90;;;;;;5001862;28;20029;-82
2023/03/02 00:14:32;;;;;;;1.38;0.47;;;5.00;99.90;;;;;;5004600;28;20028;-82
2023/03/02 00:17:03;;;;;;;1.65;0.43;;;5.00;99.90;;;;;;5004228;28;20482;-82
2023/03/02 00:19:31;;;;;;;0.03;0.03;;;5.00;99.90;;;;;;4999208;28;20037;-82
2023/03/02 00:21:58;;;;;;;0.70;0.43;;;5.00;99.90;;;;;;5003420;28;20263;-82
2023/03/02 00:24:26;;;;;;;0.03;0.03;;;5.00;99.90;;;;;;5005878;28;20053;-82
2023/03/02 00:26:53;;;;;;;0.45;0.45;;;5.00;99.90;;;;;;5004857;28;20032;-82
2023/03/02 00:29:21;;;;;;;;;;;5.00;99.90;;;;;;5005541;28;20660;-82
2023/03/02 00:31:46;;;;;;;0.00;0.00;;;4.90;99.90;;;;;;5005869;28;19940;-82
2023/03/02 00:34:15;;;;;;;0.87;0.63;;;4.80;99.90;;;;;;5027385;28;20540;-82
2023/03/02 00:36:42;;;;;;;0.20;0.20;;;4.70;99.90;;;;;;5006608;28;20033;-82
2023/03/02 00:39:08;;;;;;;0.00;0.00;;;4.70;99.90;;;;;;5022088;28;20041;-82
2023/03/02 00:41:34;;;;;;;0.10;0.10;;;4.70;99.90;;;;;;4999446;28;20072;-82
2023/03/02 00:44:00;;;;;;;0.00;0.00;;;4.80;99.90;;;;;;5023247;28;20028;-82
2023/03/02 00:46:28;;;;;;;0.00;0.00;;;4.80;99.90;;;;;;5021670;28;20026;-82
2023/03/02 00:48:55;;;;;;;0.10;0.10;;;4.90;99.90;;;;;;5000522;28;20025;-82
2023/03/02 00:51:25;;;;;;;0.00;0.00;;;4.90;99.90;;;;;;5004798;28;20498;-82
2023/03/02 00:54:07;;;;;;;0.10;0.10;;;4.90;99.90;;;;;;5018132;28;20786;-82
2023/03/02 00:56:40;;;;;;;0.08;0.08;;;4.90;99.90;;;;;;5021055;28;20521;-82
2023/03/02 00:59:25;;;;;;;0.00;0.00;;;4.90;99.90;;;;;;5003507;28;20104;-82
2023/03/02 01:01:59;;;;;;;1.42;1.27;;;4.90;99.90;;;;;;5003718;28;21088;-83
2023/03/02 01:04:28;;;;;;;0.03;0.03;;;5.00;99.90;;;;;;5006009;28;20021;-82
2023/03/02 01:07:01;;;;;;;0.00;0.00;;;5.00;99.90;;;;;;5004609;28;20104;-82
2023/03/02 01:09:27;;;;;;;0.00;0.00;;;5.00;99.90;;;;;;5007732;28;20028;-82
2023/03/02 01:11:57;;;;;;;0.00;0.00;;;5.00;99.90;;;;;;4999962;28;20032;-82
2023/03/02 01:14:29;;;;;;;0.98;0.40;;;5.00;99.90;;;;;;5005263;28;20021;-81
2023/03/02 01:16:57;;;;;;;0.17;0.17;;;5.00;99.90;;;;;;5005432;28;20037;-81
2023/03/02 01:19:26;;;;;;;0.40;0.40;;;4.90;99.90;;;;;;5005309;28;20064;-81
2023/03/02 01:21:53;;;;;;;0.00;0.00;;;4.90;99.90;;;;;;5000887;28;20032;-81
2023/03/02 01:24:20;;;;;;;;;;;4.80;99.90;;;;;;5007777;28;20025;-82
2023/03/02 01:26:46;;;;;;;0.10;0.03;;;4.80;99.90;;;;;;5005998;28;19904;-82
2023/03/02 01:29:20;;;;;;;;;;;4.80;99.90;;;;;;5004966;28;20033;-82
2023/03/02 01:31:48;;;;;;;0.88;0.47;;;4.80;99.90;;;;;;5008930;28;19946;-82
2023/03/02 01:34:25;;;;;;;0.65;0.63;;;4.90;99.90;;;;;;5020620;28;20017;-81
2023/03/02 01:36:51;;;;;;;0.00;0.00;;;4.80;99.90;;;;;;5016576;28;20033;-83
2023/03/02 01:39:21;;;;;;;;;;;4.80;99.90;;;;;;5009631;28;20022;-82
2023/03/02 01:41:54;;;;;;;0.10;0.10;;;4.80;99.90;;;;;;5008663;28;20007;-82
2023/03/02 01:44:38;;;;;;;1.65;0.75;;;4.80;99.90;;;;;;5002301;28;21342;-82
2023/03/02 01:47:35;;;;;;;0.20;0.20;;;4.80;99.90;;;;;;5006842;28;20021;-82
2023/03/02 01:50:18;;;;;;;0.00;0.00;;;4.70;99.90;;;;;;5003759;28;20017;-82
2023/03/02 01:52:46;;;;;;;0.17;0.17;;;4.80;99.90;;;;;;5012974;28;20028;-82
2023/03/02 01:55:23;;;;;;;0.15;0.15;;;4.70;99.90;;;;;;5008096;28;20159;-82
2023/03/02 01:57:52;;;;;;;0.30;0.30;;;4.60;99.90;;;;;;5011027;28;20083;-82
2023/03/02 02:00:27;;;;;;;0.00;0.00;;;4.60;99.90;;;;;;5008049;28;20076;-84
2023/03/02 02:03:07;;;;;;;0.00;0.00;;;4.50;99.90;;;;;;5007839;28;20104;-81
2023/03/02 02:05:37;;;;;;;0.10;0.10;;;4.70;99.90;;;;;;5003858;28;20071;-81
2023/03/02 02:08:06;;;;;;;0.10;0.10;;;4.50;99.90;;;;;;5026046;28;20063;-82
2023/03/02 02:10:33;;;;;;;0.00;0.00;;;4.40;99.90;;;;;;5007662;28;20025;-81
2023/03/02 02:13:02;;;;;;;0.00;0.00;;;4.40;99.90;;;;;;5005784;28;20041;-82
2023/03/02 02:15:32;;;;;;;0.00;0.00;;;4.20;99.90;;;;;;5007675;28;20025;-82
2023/03/02 02:17:57;;;;;;;0.52;0.10;;;4.20;99.90;;;;;;5005222;28;20544;-81
2023/03/02 02:20:47;;;;;;;0.07;0.07;;;4.20;99.90;;;;;;5025668;28;20044;-82
2023/03/02 02:23:29;;;;;;;0.00;0.00;;;4.20;99.90;;;;;;5026014;28;20060;-82
2023/03/02 02:26:02;;;;;;;0.00;0.00;;;4.20;99.90;;;;;;5006735;28;20374;-81
2023/03/02 02:28:44;;;;;;;0.10;0.10;;;4.30;99.90;;;;;;5006388;28;20075;-82
2023/03/02 02:31:19;;;;;;;0.00;0.00;;;4.30;99.90;;;;;;5007204;28;20344;-82
2023/03/02 02:33:57;;;;;;;0.10;0.10;;;4.30;99.90;;;;;;5008965;28;20025;-82
2023/03/02 02:36:34;;;;;;;0.00;0.00;;;4.20;99.90;;;;;;5020823;28;20032;-82
2023/03/02 02:39:04;;;;;;;0.00;0.00;;;4.10;99.90;;;;;;5006866;28;20035;-82
2023/03/02 02:41:41;;;;;;;0.52;0.20;;;4.00;99.90;;;;;;5004295;28;20029;-82
2023/03/02 02:44:16;;;;;;;0.30;0.30;;;3.80;99.90;;;;;;5007118;28;20021;-82
2023/03/02 02:46:50;;;;;;;0.00;0.00;;;3.70;99.90;;;;;;5025123;28;20261;-82
2023/03/02 02:49:35;;;;;;;1.08;0.65;;;3.60;99.90;;;;;;5003166;28;20020;-82
2023/03/02 02:52:03;;;;;;;0.00;0.00;;;3.40;99.90;;;;;;5002935;28;20084;-82
2023/03/02 02:54:32;;;;;;;0.00;0.00;;;3.30;99.90;;;;;;5007470;28;20041;-81
2023/03/02 02:57:01;;;;;;;0.00;0.00;;;3.30;99.90;;;;;;5003139;28;20639;-81
2023/03/02 02:59:40;;;;;;;0.03;0.03;;;3.20;99.90;;;;;;5006348;28;20032;-81
2023/03/02 03:02:22;;;;;;;0.00;0.00;;;3.10;99.90;;;;;;5006694;28;20375;-82
2023/03/02 03:05:03;;;;;;;0.10;0.10;;;3.00;99.90;;;;;;5002670;28;20478;-81
2023/03/02 03:07:32;;;;;;;0.30;0.20;;;2.90;99.90;;;;;;5005713;28;20005;-81
2023/03/02 03:10:18;;;;;;;0.00;0.00;;;2.90;99.90;;;;;;5008238;28;20037;-82
2023/03/02 03:12:51;;;;;;;0.00;0.00;;;2.80;99.90;;;;;;5005987;28;20024;-81
2023/03/02 03:15:20;;;;;;;1.15;1.15;;;2.80;99.90;;;;;;5007074;28;20040;-81
2023/03/02 03:17:57;;;;;;;0.40;0.40;;;2.70;99.90;;;;;;5007109;28;20025;-81
2023/03/02 03:20:25;;;;;;;;;;;2.70;99.90;;;;;;5005752;28;20490;-82
2023/03/02 03:22:52;;;;;;;0.00;0.00;;;2.50;99.90;;;;;;5005423;28;19913;-81
2023/03/02 03:25:19;;;;;;;;;;;2.50;99.90;;;;;;5004975;28;20048;-82
2023/03/02 03:27:47;;;;;;;0.00;0.00;;;2.40;99.90;;;;;;5006620;28;19904;-81
2023/03/02 03:30:14;;;;;;;0.00;0.00;;;2.40;99.90;;;;;;5020200;28;20112;-81
2023/03/02 03:32:41;;;;;;;0.03;0.03;;;2.30;99.90;;;;;;5004396;28;20053;-81
2023/03/02 03:35:11;;;;;;;0.00;0.00;;;2.30;99.90;;;;;;5006483;28;20112;-83
2023/03/02 03:37:39;;;;;;;0.00;0.00;;;2.20;99.90;;;;;;5005961;28;20024;-81
2023/03/02 03:40:08;;;;;;;0.00;0.00;;;2.20;99.90;;;;;;5002893;28;20018;-82
2023/03/02 03:42:38;;;;;;;0.00;0.00;;;2.10;99.90;;;;;;5009606;28;20032;-81
2023/03/02 03:45:07;;;;;;;0.00;0.00;;;2.30;99.90;;;;;;5006195;28;20032;-81
2023/03/02 03:47:33;;;;;;;0.00;0.00;;;2.10;99.90;;;;;;5003973;28;20029;-81
2023/03/02 03:50:02;;;;;;;0.00;0.00;;;2.10;99.90;;;;;;5006676;28;20032;-81
2023/03/02 03:52:33;;;;;;;0.00;0.00;;;2.00;99.90;;;;;;4998851;28;20026;-81
2023/03/02 03:55:01;;;;;;;0.20;0.20;;;2.10;99.90;;;;;;5005194;28;20515;-81
2023/03/02 03:57:28;;;;;;;0.00;0.00;;;1.90;99.90;;;;;;5003345;28;20013;-81
2023/03/02 03:59:54;;;;;;;0.00;0.00;;;2.00;99.90;;;;;;5005697;28;20021;-81
2023/03/02 04:02:20;;;;;;;0.00;0.00;;;2.00;99.90;;;;;;5004655;28;20087;-80
2023/03/02 04:04:48;;;;;;;0.20;0.20;;;2.00;99.90;;;;;;5024311;28;20048;-81
2023/03/02 04:07:21;;;;;;;1.17;0.32;;;1.90;99.90;;;;;;5019052;28;20099;-81
2023/03/02 04:10:02;;;;;;;0.52;0.40;;;1.90;99.90;;;;;;5009363;28;20027;-81
2023/03/02 04:12:34;;;;;;;0.00;0.00;;;1.90;99.90;;;;;;5018813;28;20026;-81
2023/03/02 04:15:05;;;;;;;0.20;0.20;;;1.90;99.90;;;;;;5021169;28;20022;-80
2023/03/02 04:17:32;;;;;;;1.00;0.70;;;1.90;99.90;;;;;;5009184;28;20083;-81
2023/03/02 04:19:58;;;;;;;0.00;0.00;;;1.80;99.90;;;;;;5000745;28;20510;-81
2023/03/02 04:22:27;;;;;;;1.65;0.47;;;1.80;99.90;;;;;;5004284;28;20057;-82
2023/03/02 04:24:54;;;;;;;0.80;0.45;;;1.80;99.90;;;;;;5022128;28;20028;-81
2023/03/02 04:27:21;;;;;;;0.00;0.00;;;2.00;99.90;;;;;;5003895;28;20029;-81
2023/03/02 04:29:47;;;;;;;0.00;0.00;;;1.80;99.90;;;;;;5005596;28;20032;-80
2023/03/02 04:32:16;;;;;;;0.17;0.17;;;1.70;99.90;;;;;;5004270;28;20040;-81
2023/03/02 04:34:48;;;;;;;0.20;0.20;;;1.70;99.90;;;;;;5005352;28;20067;-81
2023/03/02 04:37:25;;;;;;;0.10;0.10;;;1.70;99.90;;;;;;5023833;28;20024;-81
2023/03/02 04:39:53;;;;;;;0.00;0.00;;;1.70;99.90;;;;;;5022313;28;20109;-81
2023/03/02 04:42:20;;;;;;;0.13;0.13;;;1.60;99.90;;;;;;5015821;28;20115;-81
2023/03/02 04:44:54;;;;;;;0.00;0.00;;;1.70;99.90;;;;;;5023272;28;20017;-81
2023/03/02 04:47:21;;;;;;;0.00;0.00;;;1.60;99.90;;;;;;5022803;28;20034;-81
2023/03/02 04:49:49;;;;;;;0.00;0.00;;;1.50;99.90;;;;;;5022658;28;20052;-81
2023/03/02 04:52:15;;;;;;;0.00;0.00;;;1.70;99.90;;;;;;5000269;28;20417;-81
2023/03/02 04:54:41;;;;;;;0.00;0.00;;;1.50;99.90;;;;;;5005085;28;20026;-81
2023/03/02 04:57:07;;;;;;;0.00;0.00;;;1.50;99.90;;;;;;5021099;28;20061;-81
2023/03/02 04:59:35;;;;;;;0.23;0.23;;;1.50;99.90;;;;;;5004184;28;20104;-81
2023/03/02 05:02:00;;;;;;;0.10;0.10;;;1.50;99.90;;;;;;5004128;28;20025;-81
2023/03/02 05:04:28;;;;;;;0.10;0.10;;;1.50;99.90;;;;;;5004454;28;20221;-81
2023/03/02 05:07:03;;;;;;;0.10;0.10;;;1.40;99.90;;;;;;5020106;28;20470;-81
2023/03/02 05:09:33;;;;;;;0.00;0.00;;;1.40;99.90;;;;;;5002557;28;20017;-81
2023/03/02 05:12:06;;;;;;;0.20;0.20;;;1.40;99.90;;;;;;5005094;28;20032;-81
2023/03/02 05:14:32;;;;;;;1.75;1.65;;;1.40;99.90;;;;;;5003871;28;20025;-81
2023/03/02 05:16:58;;;;;;;0.03;0.03;;;1.50;99.90;;;;;;5009629;28;20153;-81
2023/03/02 05:19:24;;;;;;;;;;;1.40;99.90;;;;;;5021482;28;20742;-81
2023/03/02 05:21:51;;;;;;;0.00;0.00;;;1.30;99.90;;;;;;5007763;28;20507;-82
2023/03/02 05:24:21;;;;;;;0.00;0.00;;;1.40;99.90;;;;;;5024484;28;20026;-81
2023/03/02 05:26:48;;;;;;;0.00;0.00;;;1.30;99.90;;;;;;5009203;28;20466;-79
2023/03/02 05:29:15;;;;;;;0.88;0.38;;;1.40;99.90;;;;;;5008067;28;20028;-81
2023/03/02 05:31:43;;;;;;;0.00;0.00;;;1.40;99.90;;;;;;5010583;28;20044;-81
2023/03/02 05:34:14;;;;;;;0.00;0.00;;;1.40;99.90;;;;;;5013361;28;20052;-80
2023/03/02 05:36:42;;;;;;;0.00;0.00;;;1.40;99.90;;;;;;5012666;28;20032;-81
2023/03/02 05:39:08;;;;;;;0.00;0.00;;;1.40;99.90;;;;;;5027249;28;20383;-81
2023/03/02 05:41:36;;;;;;;0.00;0.00;;;1.40;99.90;;;;;;5034701;28;20048;-81
2023/03/02 05:44:02;;;;;;;0.10;0.10;;;1.40;99.90;;;;;;5016498;28;20156;-80
2023/03/02 05:46:30;;;;;;;0.00;0.00;;;1.50;99.90;;;;;;5008629;28;20083;-80
2023/03/02 05:48:59;;;;;;;0.00;0.00;;;1.70;99.90;;;;;;5006841;28;20072;-81
2023/03/02 05:51:29;;;;;;;0.00;0.00;;;1.80;99.90;;;;;;5006194;28;20021;-82
2023/03/02 05:53:54;;;;;;;0.00;0.00;;;1.90;99.90;;;;;;5019107;28;20670;-82
2023/03/02 05:56:23;;;;;;;0.00;0.00;;;2.00;99.90;;;;;;5005526;28;20075;-81
2023/03/02 05:58:49;;;;;;;0.00;0.00;;;2.30;99.90;;;;;;5004312;28;20037;-80
2023/03/02 06:01:20;;;;;;;0.00;0.00;;;2.60;99.90;;;;;;5006843;28;20021;-81
2023/03/02 06:03:50;;;;;;;0.00;0.00;;;2.90;99.90;;;;;;5012086;28;20043;-80
2023/03/02 06:06:17;;;;;;;0.00;0.00;;;3.30;99.90;;;;;;5026265;28;20475;-80
2023/03/02 06:08:47;;;;;;;;;;;3.60;99.90;;;;;;5008536;28;20028;-81
2023/03/02 06:11:17;;;;;;;0.85;0.63;;;4.10;99.90;;;;;;5007712;28;20852;-80
2023/03/02 06:13:45;;;;;;;0.00;0.00;;;4.60;99.90;;;;;;5007359;28;20044;-79
2023/03/02 06:16:26;;;;;;;0.00;0.00;;;5.20;99.90;;;;;;5003435;28;20029;-79
2023/03/02 06:19:21;;;;;;;0.00;0.00;;;5.70;99.90;;;;;;5024774;28;20023;-81
2023/03/02 06:21:48;;;;;;;0.43;0.43;;;6.20;99.90;;;;;;5004433;28;20044;-81
2023/03/02 06:24:14;;;;;;;0.00;0.00;;;6.70;99.90;;;;;;5011995;28;20107;-81
2023/03/02 06:26:53;;;;;;;0.00;0.00;;;7.20;99.90;;;;;;5007914;28;20029;-81
2023/03/02 06:29:26;;;;;;;0.20;0.20;;;7.70;99.90;;;;;;5002238;28;20225;-80
2023/03/02 06:32:05;;;;;;;0.00;0.00;;;8.00;99.90;;;;;;5010422;28;20091;-79
2023/03/02 06:34:31;;;;;;;0.00;0.00;;;8.00;99.90;;;;;;5008798;28;20018;-80
2023/03/02 06:36:58;;;;;;;0.23;0.23;;;8.20;99.60;;;;;;5000691;28;20025;-81
2023/03/02 06:39:32;;;;;;;0.47;0.47;;;8.40;99.50;;;;;;5005886;28;20056;-80
2023/03/02 06:42:04;;;;;;;0.00;0.00;;;8.60;98.90;;;;;;5022190;28;20486;-80
2023/03/02 06:44:30;;;;;;;0.28;0.28;;;8.80;96.70;;;;;;5008025;28;20071;-80
2023/03/02 06:47:02;;;;;;;0.53;0.53;;;9.20;96.40;;;;;;5002760;28;20494;-80
2023/03/02 06:49:28;;;;;;;0.10;0.10;;;9.40;94.20;;;;;;5024534;28;20773;-81
2023/03/02 06:51:58;;;;;;;;;;;10.00;92.20;;;;;;5007195;28;20029;-81
2023/03/02 06:54:27;;;;;;;0.00;0.00;;;10.20;90.60;;;;;;5006340;28;19936;-81
2023/03/02 06:56:56;;;;;;;0.10;0.10;;;10.70;87.70;;;;;;5006839;28;20022;-81
2023/03/02 06:59:25;;;;;;;0.28;0.28;;;10.90;85.50;;;;;;5004311;28;20017;-82
2023/03/02 07:01:54;;;;;;;0.00;0.00;;;11.00;83.90;;;;;;5034405;28;20370;-83
2023/03/02 07:04:21;;;;;;;0.73;0.50;;;11.20;82.00;;;;;;5013799;28;20033;-82
2023/03/02 07:06:47;;;;;;;0.30;0.30;;;11.20;79.70;;;;;;5016827;28;20033;-81
2023/03/02 07:09:21;;;;;;;0.00;0.00;;;11.20;78.10;;;;;;5009501;28;20366;-82
2023/03/02 07:11:49;;;;;;;4.15;1.27;;;11.40;75.50;;;;;;5007105;28;20683;-81
2023/03/02 07:14:23;;;;;;;1.88;0.70;;;11.20;77.40;;;;;;5019745;28;20017;-81
2023/03/02 07:16:50;;;;;;;0.00;0.00;;;11.70;75.00;;;;;;5006948;28;20040;-81
2023/03/02 07:19:24;;;;;;;0.00;0.00;;;12.30;71.90;;;;;;5024815;28;20104;-81
2023/03/02 07:21:52;;;;;;;1.55;0.77;;;13.30;67.70;;;;;;5022761;28;20071;-81
2023/03/02 07:24:27;;;;;;;0.00;0.00;;;13.00;65.70;;;;;;5006837;28;20014;-82
2023/03/02 07:26:59;;;;;;;0.45;0.32;;;13.90;64.90;;;;;;5006284;28;20109;-81
2023/03/02 07:29:27;;;;;;;0.38;0.38;;;14.30;62.70;;;;;;5006801;28;20014;-82
2023/03/02 07:31:58;;;;;;;0.10;0.10;;;14.40;61.70;;;;;;5022146;28;20026;-81
2023/03/02 07:34:25;;;;;;;0.43;0.43;;;14.00;62.00;;;;;;5001949;28;20032;-81
2023/03/02 07:36:51;;;;;;;0.98;0.90;;;14.10;61.70;;;;;;5024591;28;20581;-81
2023/03/02 07:39:18;;;;;;;3.70;1.27;;;13.00;61.30;;;;;;5002636;28;20108;-81
2023/03/02 07:41:48;;;;;;;0.10;0.10;;;12.70;62.00;;;;;;5023256;28;20028;-81
2023/03/02 07:44:15;;;;;;;0.13;0.13;;;12.60;62.70;;;;;;5004904;28;20021;-81
2023/03/02 07:46:42;;;;;;;1.17;0.88;;;14.00;62.10;;;;;;5006907;28;20033;-81
2023/03/02 07:49:10;;;;;;;0.45;0.05;;;14.10;60.00;;;;;;5006124;28;20017;-81
2023/03/02 07:51:56;;;;;;;0.00;0.00;;;15.60;56.80;;;;;;5005535;28;20167;-80
2023/03/02 07:54:25;;;;;;;0.32;0.10;;;12.50;59.60;;;;;;5004937;28;20060;-80
2023/03/02 07:56:56;;;;;;;0.22;0.22;;;12.80;60.10;;;;;;4999180;28;20383;-81
2023/03/02 07:59:28;;;;;;;0.10;0.10;;;13.00;59.20;;;;;;5023220;28;20029;-80
2023/03/02 08:01:59;;;;;;;0.77;0.77;;;14.00;57.10;;;;;;5009643;28;20117;-81
2023/03/02 08:04:43;;;;;;;0.40;0.40;;;12.40;58.80;;;;;;5019767;28;20044;-81
2023/03/02 08:07:13;;;;;;;0.52;0.30;;;13.50;58.70;;;;;;5022977;28;20467;-81
2023/03/02 08:09:40;;;;;;;0.00;0.00;;;13.50;57.20;;;;;;5005796;28;20457;-82
2023/03/02 08:12:09;;;;;;;0.32;0.30;;;15.00;55.90;;;;;;5009402;28;20022;-80
2023/03/02 08:14:38;;;;;;;0.20;0.20;;;15.60;54.80;;;;;;5004128;28;20390;-81
2023/03/02 08:17:08;;;;;;;0.32;0.32;;;15.80;53.60;;;;;;5006096;28;20145;-81
2023/03/02 08:19:35;;;;;;;1.52;1.05;;;14.60;54.70;;;;;;5026056;28;20021;-82
2023/03/02 08:22:02;;;;;;;1.45;1.27;;;15.80;54.00;;;;;;5002556;28;20091;-81
2023/03/02 08:24:29;;;;;;;0.75;0.75;;;16.20;53.20;;;;;;5002963;28;20021;-81
2023/03/02 08:26:55;;;;;;;0.75;0.75;;;17.30;51.20;;;;;;5023388;28;20028;-81
2023/03/02 08:29:24;;;;;;;0.13;0.13;;;16.90;51.30;;;;;;5004817;28;20026;-83
2023/03/02 08:31:50;;;;;;;0.40;0.25;;;18.80;49.20;;;;;;5002351;28;20124;-81
2023/03/02 08:34:25;;;;;;;0.60;0.40;;;19.00;48.30;;;;;;5005685;28;20415;-81
2023/03/02 08:36:51;;;;;;;0.43;0.40;;;18.40;47.70;;;;;;5022840;28;20329;-81
2023/03/02 08:39:22;;;;;;;0.00;0.00;;;19.10;47.50;;;;;;5006130;28;20033;-81
2023/03/02 08:41:52;;;;;;;0.00;0.00;;;19.40;45.80;;;;;;5017002;28;20032;-82
2023/03/02 08:44:28;;;;;;;0.52;0.52;;;16.60;48.30;;;;;;5013357;28;20021;-83
2023/03/02 08:46:58;;;;;;;1.88;0.65;;;16.70;49.60;;;;;;5024747;28;20013;-82
2023/03/02 08:49:33;;;;;;;0.28;0.25;;;15.80;50.00;;;;;;5008208;28;20021;-82
2023/03/02 08:52:00;;;;;;;0.00;0.00;;;17.60;49.20;;;;;;5010760;28;20075;-82
2023/03/02 08:54:33;;;;;;;0.00;0.00;;;18.00;49.10;;;;;;5009567;28;20037;-81
2023/03/02 08:57:01;;;;;;;0.00;0.00;;;18.10;47.60;;;;;;5021572;28;20021;-84
2023/03/02 08:59:28;;;;;;;0.00;0.00;;;19.50;47.30;;;;;;5006569;28;20046;-84
2023/03/02 09:01:55;;;;;;;0.30;0.28;;;19.40;46.30;;;;;;5007337;28;20028;-83
2023/03/02 09:04:29;;;;;;;1.95;0.60;;;20.70;46.50;;;;;;5009875;28;20021;-86
2023/03/02 09:06:56;;;;;;;0.88;0.68;;;19.20;45.20;;;;;;5009116;28;20254;-84
2023/03/02 09:09:22;;;;;;;0.55;0.50;;;18.90;46.30;;;;;;5022815;28;20021;-86
2023/03/02 09:11:49;;;;;;;0.00;0.00;;;19.70;45.20;;;;;;5007463;28;20021;-83
2023/03/02 09:14:15;;;;;;;0.47;0.22;;;20.80;45.00;;;;;;5030617;28;20048;-83
2023/03/02 09:16:45;;;;;;;0.85;0.55;;;19.40;45.40;;;;;;5032463;28;20030;-82
2023/03/02 09:19:13;;;;;;;0.20;0.10;;;18.30;47.10;;;;;;5014706;28;20025;-82
2023/03/02 09:21:40;;;;;;;0.30;0.30;;;18.50;46.80;;;;;;5012105;28;20030;-81
2023/03/02 09:24:11;;;;;;;0.10;0.10;;;20.50;46.10;;;;;;5012893;28;20485;-82
2023/03/02 09:26:38;;;;;;;0.25;0.25;;;21.10;44.50;;;;;;5012429;28;20034;-82
2023/03/02 09:29:07;;;;;;;0.50;0.50;;;20.50;44.00;;;;;;5007765;28;20079;-82
2023/03/02 09:31:34;;;;;;;0.55;0.55;;;20.70;44.60;;;;;;5008105;28;20029;-82
2023/03/02 09:34:03;;;;;;;0.55;0.55;;;21.30;44.40;;;;;;5015231;28;20152;-82
2023/03/02 09:36:31;;;;;;;0.10;0.10;;;20.60;43.50;;;;;;5027909;28;20010;-79
2023/03/02 09:39:11;;;;;;;0.45;0.20;;;19.10;44.70;;;;;;5006066;28;20064;-82
2023/03/02 09:41:56;;;;;;;1.27;0.55;;;21.30;44.50;;;;;;5003185;28;20021;-81
2023/03/02 09:44:34;;;;;;;1.23;1.05;;;20.00;44.30;;;;;;5004666;28;20025;-80
2023/03/02 09:47:26;;;;;;;0.00;0.00;;;19.90;45.00;;;;;;5005883;28;20018;-82
2023/03/02 09:50:15;;;;;;;0.00;0.00;;;20.00;45.10;;;;;;5007429;28;20025;-81
2023/03/02 09:53:30;;;;;;;0.00;0.00;;;18.10;45.60;;;;;;5007476;28;20029;-82
2023/03/02 09:56:01;;;;;;;0.43;0.38;;;19.60;46.00;;;;;;5003229;28;20037;-81
2023/03/02 09:58:40;;;;;;;1.17;0.30;;;20.00;44.90;;;;;;5009093;28;20032;-82
2023/03/02 10:01:16;;;;;;;0.52;0.52;;;19.90;45.20;;;;;;5006467;28;20159;-81
2023/03/02 10:04:08;;;;;;;0.93;0.70;;;21.20;44.50;;;;;;5029248;28;20029;-81
2023/03/02 10:06:35;;;;;;;0.85;0.63;;;21.40;44.40;;;;;;5011515;28;20104;-83
2023/03/02 10:09:08;;;;;;;0.57;0.57;;;21.40;44.40;;;;;;5024463;28;20052;-83
2023/03/02 10:12:00;;;;;;;0.00;0.00;;;21.50;43.80;;;;;;5038229;28;20073;-84
2023/03/02 10:14:37;;;;;;;0.00;0.00;;;19.40;43.70;;;;;;5051972;28;20001;-83
2023/03/02 10:17:33;;;;;;;0.10;0.10;;;19.50;46.30;;;;;;5009843;28;20042;-88
2023/03/02 10:20:04;;;;;;;0.22;0.22;;;22.50;44.00;;;;;;5005429;28;20074;-82
2023/03/02 10:22:51;;;;;;;0.20;0.05;;;21.40;42.70;;;;;;5009376;28;20025;-81
2023/03/02 10:25:22;;;;;;;0.30;0.20;;;19.50;43.90;;;;;;5030788;28;20075;-81
2023/03/02 10:28:00;;;;;;;0.90;0.68;;;20.20;45.00;;;;;;5011884;28;20024;-83
2023/03/02 10:30:34;;;;;;;0.03;0.03;;;21.40;43.40;;;;;;5009512;28;20025;-82
2023/03/02 10:33:14;;;;;;;0.03;0.00;;;21.60;43.50;;;;;;5022855;28;20029;-81
2023/03/02 10:35:48;;;;;;;0.00;0.00;;;23.70;42.60;;;;;;5024828;28;20516;-83
2023/03/02 10:38:23;;;;;;;0.20;0.20;;;25.40;40.90;;;;;;5007629;28;20381;-84
2023/03/02 10:40:58;;;;;;;0.30;0.22;;;24.20;40.50;;;;;;5007013;28;20063;-84
2023/03/02 10:43:52;;;;;;;0.10;0.10;;;23.60;39.80;;;;;;5006868;28;20506;-81
2023/03/02 10:46:42;;;;;;;0.28;0.28;;;21.50;42.90;;;;;;5005001;28;20033;-83
2023/03/02 10:49:40;;;;;;;0.10;0.10;;;24.50;41.20;;;;;;5020987;28;20068;-83
2023/03/02 10:52:15;;;;;;;0.55;0.52;;;26.10;39.60;;;;;;5022754;28;20443;-82
2023/03/02 10:54:41;;;;;;;0.20;0.20;;;24.30;40.20;;;;;;5007021;28;20040;-88
2023/03/02 10:57:36;;;;;;;0.13;0.13;;;24.90;40.40;;;;;;5025431;28;20022;-84
2023/03/02 11:00:16;;;;;;;0.77;0.32;;;25.40;39.60;;;;;;5023365;28;20429;-86
2023/03/02 11:02:53;;;;;;;0.40;0.40;;;25.90;39.40;;;;;;5007223;28;20056;-85
2023/03/02 11:05:26;;;;;;;0.60;0.55;;;22.40;39.70;;;;;;5019278;28;20022;-84
2023/03/02 11:08:08;;;;;;;0.00;0.00;;;20.60;43.50;;;;;;5018063;28;20434;-83
2023/03/02 11:10:58;;;;;;;0.10;0.10;;;21.60;43.00;;;;;;5004333;28;20029;-82
2023/03/02 11:13:33;;;;;;;0.20;0.20;;;21.50;42.80;;;;;;5025627;28;20022;-82
2023/03/02 11:16:16;;;;;;;1.33;0.68;;;19.30;45.20;;;;;;5006957;28;20022;-82
2023/03/02 11:18:53;;;;;;;1.50;0.95;;;18.10;46.00;;;;;;5006952;28;20032;-81
2023/03/02 11:21:34;;;;;;;1.70;0.43;;;15.70;49.20;;;;;;5007933;28;20025;-81
2023/03/02 11:24:09;;;;;;;0.13;0.10;;;14.40;52.60;;;;;;5006890;28;20029;-81
2023/03/02 11:26:58;;;;;;;0.38;0.30;;;14.00;53.60;;;;;;5020191;28;20018;-81
2023/03/02 11:29:45;;;;;;;0.22;0.22;;;14.10;54.40;;;;;;5006939;28;20032;-82
2023/03/02 11:32:30;;;;;;;2.33;1.30;;;13.60;55.00;;;;;;5008526;28;20021;-82
2023/03/02 11:35:13;;;;;;;0.20;0.20;;;12.90;55.70;;;;;;5008022;28;20462;-82
2023/03/02 11:38:15;;;;;;;0.10;0.10;;;13.10;56.50;;;;;;5008902;28;20018;-82
2023/03/02 11:40:41;;;;;;;0.10;0.10;;;13.20;57.40;;;;;;5005826;28;20033;-82
2023/03/02 11:43:09;;;;;;;0.00;0.00;;;13.20;57.30;;;;;;5011339;28;20018;-81
2023/03/02 11:45:41;;;;;;;0.00;0.00;;;13.10;57.60;;;;;;5003752;28;20031;-83
2023/03/02 11:48:27;;;;;;;0.10;0.10;;;13.10;57.80;;;;;;5032570;28;20047;-83
2023/03/02 11:51:17;;;;;;;0.55;0.55;;;12.90;57.90;;;;;;5018429;28;20114;-83
2023/03/02 11:53:54;;;;;;;0.47;0.38;;;12.60;58.30;;;;;;5021063;28;20844;-84
2023/03/02 11:56:21;;;;;;;;;;;12.60;59.80;;;;;;5021816;28;20892;-83
2023/03/02 11:58:55;;;;;;;0.03;0.03;;;12.50;59.90;;;;;;5008862;28;19908;-82
2023/03/02 12:01:25;;;;;;;2.72;0.55;;;12.50;60.20;;;;;;5008509;28;20030;-82
2023/03/02 12:04:31;;;;;;;0.40;0.38;;;12.10;60.60;;;;;;5027075;28;20123;-82
2023/03/02 12:07:31;;;;;;;0.15;0.15;;;12.10;61.40;;;;;;5028266;28;20014;-83
2023/03/02 12:10:27;;;;;;;0.00;0.00;;;12.10;61.80;;;;;;5007142;28;20034;-83
2023/03/02 12:13:11;;;;;;;0.00;0.00;;;12.20;62.00;;;;;;5012721;28;20471;-83
2023/03/02 12:15:44;;;;;;;0.65;0.30;;;12.50;62.00;;;;;;5011732;28;20156;-83
2023/03/02 12:18:24;;;;;;;0.30;0.30;;;12.60;60.30;;;;;;5026295;28;20013;-82
2023/03/02 12:21:02;;;;;;;0.43;0.30;;;12.60;60.40;;;;;;5009144;28;20049;-83
2023/03/02 12:23:30;;;;;;;1.00;0.32;;;12.20;61.60;;;;;;5008464;28;20021;-83
2023/03/02 12:26:19;;;;;;;0.00;0.00;;;12.60;61.60;;;;;;5014571;28;20034;-83
2023/03/02 12:29:04;;;;;;;0.30;0.17;;;12.10;59.80;;;;;;5010174;28;20044;-82
2023/03/02 12:31:48;;;;;;;1.85;0.80;;;12.20;60.30;;;;;;5012666;28;20049;-83
2023/03/02 12:34:34;;;;;;;0.00;0.00;;;12.10;59.30;;;;;;5021126;28;20048;-84
2023/03/02 12:37:15;;;;;;;0.22;0.22;;;12.00;60.50;;;;;;5029296;28;20018;-83
2023/03/02 12:40:08;;;;;;;0.00;0.00;;;12.00;59.30;;;;;;5006139;28;20103;-82
2023/03/02 12:43:00;;;;;;;0.55;0.43;;;11.80;60.30;;;;;;5009536;28;20049;-82
2023/03/02 12:46:03;;;;;;;0.00;0.00;;;11.80;60.80;;;;;;5038365;28;20505;-83
2023/03/02 12:48:48;;;;;;;0.00;0.00;;;11.90;59.40;;;;;;5015224;28;20025;-84
2023/03/02 12:51:26;;;;;;;0.00;0.00;;;11.90;58.60;;;;;;5020003;28;20085;-83
2023/03/02 12:54:14;;;;;;;0.22;0.22;;;11.60;59.10;;;;;;5016659;28;20017;-83
2023/03/02 12:56:41;;;;;;;;;;;11.70;58.60;;;;;;5029474;28;20493;-81
2023/03/02 12:59:24;;;;;;;8.80;0.57;;;11.70;57.30;;;;;;5001154;28;19984;-82
2023/03/02 13:02:04;;;;;;;0.00;0.00;;;12.00;58.00;;;;;;5004537;28;20267;-82
2023/03/02 13:04:35;;;;;;;3.40;1.08;;;12.00;57.80;;;;;;5003835;28;20021;-82
2023/03/02 13:07:01;;;;;;;0.00;0.00;;;12.10;57.30;;;;;;5014272;28;20018;-83
2023/03/02 13:09:28;;;;;;;0.73;0.30;;;11.90;57.50;;;;;;5017785;28;20095;-84
2023/03/02 13:12:17;;;;;;;0.20;0.20;;;11.90;57.70;;;;;;5020248;28;20256;-84
2023/03/02 13:14:48;;;;;;;0.10;0.10;;;11.90;57.80;;;;;;5044471;28;20025;-84
2023/03/02 13:17:37;;;;;;;0.10;0.10;;;12.00;57.30;;;;;;5018489;28;20029;-83
2023/03/02 13:20:04;;;;;;;0.32;0.20;;;11.90;55.80;;;;;;5007549;28;20049;-82
2023/03/02 13:22:32;;;;;;;0.05;0.05;;;11.90;56.60;;;;;;5029237;28;20076;-83
2023/03/02 13:25:04;;;;;;;0.00;0.00;;;11.90;56.70;;;;;;5014779;28;20014;-84
2023/03/02 13:27:33;;;;;;;1.17;0.65;;;12.10;55.80;;;;;;5009130;28;20017;-80